createdAt,value
2022-10-02T00:02:11.337Z,7.33
2022-10-02T00:07:16.559Z,5.87
2022-10-02T00:12:22.026Z,7.17
2022-10-02T00:17:32.750Z,5.37
2022-10-02T00:22:34.990Z,5.60
2022-10-02T00:27:44.334Z,8.07
2022-10-02T00:33:11.215Z,6.43
2022-10-02T00:38:23.077Z,6.30
2022-10-02T00:44:06.589Z,7.00
2022-10-02T00:49:42.931Z,9.80
2022-10-02T00:54:56.328Z,5.70
2022-10-02T01:00:10.502Z,9.17
2022-10-02T01:05:13.634Z,6.00
2022-10-02T01:10:16.441Z,8.77
2022-10-02T01:15:22.242Z,7.83
2022-10-02T01:20:47.627Z,6.20
2022-10-02T01:25:50.408Z,7.33
2022-10-02T01:30:57.899Z,7.57
2022-10-02T01:36:01.079Z,5.70
2022-10-02T01:41:03.432Z,8.63
2022-10-02T01:46:40.032Z,7.10
2022-10-02T01:51:54.193Z,7.13
2022-10-02T01:57:23.807Z,6.53
2022-10-02T02:02:34.427Z,5.37
2022-10-02T02:07:48.437Z,5.07
2022-10-02T02:13:00.417Z,6.73
2022-10-02T02:18:11.748Z,3.47
2022-10-02T02:23:24.668Z,4.87
2022-10-02T02:28:30.460Z,3.03
2022-10-02T02:33:38.609Z,7.27
2022-10-02T02:38:49.122Z,3.50
2022-10-02T02:44:12.610Z,6.60
2022-10-02T02:49:15.134Z,6.00
2022-10-02T02:54:24.312Z,4.77
2022-10-02T02:59:31.417Z,5.37
2022-10-02T03:04:33.702Z,12.07
2022-10-02T03:09:37.916Z,3.47
2022-10-02T03:15:02.620Z,6.63
2022-10-02T03:20:47.959Z,4.97
2022-10-02T03:26:00.499Z,8.13
2022-10-02T03:31:03.660Z,8.47
2022-10-02T03:36:06.579Z,4.47
2022-10-02T03:41:08.925Z,8.60
2022-10-02T03:46:11.561Z,8.10
2022-10-02T03:51:13.897Z,8.90
2022-10-02T03:56:25.482Z,9.27
2022-10-02T04:01:36.932Z,7.17
2022-10-02T04:06:46.502Z,6.87
2022-10-02T04:11:57.309Z,12.70
2022-10-02T04:17:21.149Z,10.63
2022-10-02T04:22:35.285Z,7.23
2022-10-02T04:27:44.656Z,6.60
2022-10-02T04:32:47.655Z,13.07
2022-10-02T04:38:13.749Z,7.40
2022-10-02T04:43:21.919Z,9.83
2022-10-02T04:49:04.310Z,11.57
2022-10-02T04:54:34.686Z,10.43
2022-10-02T05:00:01.978Z,6.10
2022-10-02T05:05:33.540Z,9.87
2022-10-02T05:10:54.286Z,11.93
2022-10-02T05:16:28.526Z,9.03
2022-10-02T05:21:49.453Z,10.30
2022-10-02T05:27:29.093Z,5.23
2022-10-02T05:33:05.035Z,11.30
2022-10-02T05:38:33.661Z,7.87
2022-10-02T05:43:53.532Z,11.43
2022-10-02T05:49:02.041Z,8.10
2022-10-02T05:54:14.503Z,13.17
2022-10-02T05:59:32.546Z,9.37
2022-10-02T06:04:40.560Z,11.87
2022-10-02T06:09:52.407Z,9.80
2022-10-02T06:15:05.238Z,9.10
2022-10-02T06:20:35.170Z,10.80
2022-10-02T06:25:45.023Z,6.10
2022-10-02T06:30:53.131Z,10.67
2022-10-02T06:36:30.142Z,7.53
2022-10-02T06:42:00.156Z,9.60
2022-10-02T06:47:15.754Z,9.10
2022-10-02T06:52:44.536Z,7.80
2022-10-02T06:58:07.455Z,9.03
2022-10-02T07:03:50.755Z,14.50
2022-10-02T07:09:38.431Z,12.00
2022-10-02T07:14:59.366Z,11.17
2022-10-02T07:20:33.079Z,12.47
2022-10-02T07:26:00.483Z,11.53
2022-10-02T07:31:40.969Z,5.30
2022-10-02T07:37:10.684Z,7.03
2022-10-02T07:42:27.407Z,9.73
2022-10-02T07:47:59.459Z,16.43
2022-10-02T07:53:26.425Z,12.73
2022-10-02T07:58:36.991Z,6.23
2022-10-02T08:03:57.117Z,9.93
2022-10-02T08:09:24.583Z,28.90
2022-10-02T08:14:45.705Z,8.30
2022-10-02T08:19:51.570Z,12.40
2022-10-02T08:25:20.883Z,9.70
2022-10-02T08:30:23.487Z,10.47
2022-10-02T08:35:41.431Z,11.57
2022-10-02T08:41:09.812Z,9.90
2022-10-02T08:46:21.919Z,13.67
2022-10-02T08:51:51.897Z,15.77
2022-10-02T08:56:58.580Z,7.37
2022-10-02T09:02:29.488Z,10.97
2022-10-02T09:08:08.424Z,11.83
2022-10-02T09:13:23.399Z,8.23
2022-10-02T09:18:56.620Z,7.83
2022-10-02T09:24:10.575Z,10.33
2022-10-02T09:29:37.799Z,7.90
2022-10-02T09:35:17.314Z,11.20
2022-10-02T09:40:46.835Z,9.47
2022-10-02T09:46:17.209Z,9.57
2022-10-02T09:51:50.601Z,8.10
2022-10-02T09:57:12.216Z,12.73
2022-10-02T10:02:25.825Z,4.37
2022-10-02T10:07:36.948Z,8.20
2022-10-02T10:13:22.213Z,3.77
2022-10-02T10:18:39.412Z,7.37
2022-10-02T10:23:59.330Z,7.47
2022-10-02T10:29:25.655Z,5.13
2022-10-02T10:34:47.256Z,4.50
2022-10-02T10:40:21.227Z,9.23
2022-10-02T10:46:06.437Z,6.43
2022-10-02T10:51:23.897Z,4.67
2022-10-02T10:56:49.274Z,8.73
2022-10-02T11:02:20.953Z,4.43
2022-10-02T11:08:05.903Z,6.83
2022-10-02T11:13:29.069Z,7.90
2022-10-02T11:19:03.015Z,5.13
2022-10-02T11:24:18.447Z,12.87
2022-10-02T11:29:57.138Z,6.80
2022-10-02T11:35:28.539Z,4.80
2022-10-02T11:40:58.100Z,5.33
2022-10-02T11:46:06.531Z,5.30
2022-10-02T11:51:29.443Z,4.17
2022-10-02T11:56:40.927Z,6.73
2022-10-02T12:02:26.122Z,4.13
2022-10-02T12:07:40.750Z,5.40
2022-10-02T12:12:52.243Z,5.93
2022-10-02T12:18:02.676Z,6.50
2022-10-02T12:23:39.885Z,6.03
2022-10-02T12:28:57.000Z,4.17
2022-10-02T12:34:29.251Z,5.43
2022-10-02T12:39:47.245Z,7.10
2022-10-02T12:45:37.955Z,4.20
2022-10-02T12:50:55.264Z,4.57
2022-10-02T12:56:23.512Z,3.40
2022-10-02T13:01:54.288Z,6.23
2022-10-02T13:07:08.389Z,5.37
2022-10-02T13:12:38.184Z,5.60
2022-10-02T13:18:05.739Z,6.17
2022-10-02T13:23:13.943Z,10.40
2022-10-02T13:28:36.951Z,4.30
2022-10-02T13:33:42.164Z,9.67
2022-10-02T13:39:02.655Z,13.13
2022-10-02T13:44:24.493Z,14.77
2022-10-02T13:49:56.861Z,29.67
2022-10-02T13:55:08.258Z,10.23
2022-10-02T14:00:23.903Z,6.83
2022-10-02T14:05:34.651Z,3.10
2022-10-02T14:10:59.540Z,3.10
2022-10-02T14:16:41.669Z,4.60
2022-10-02T14:21:55.813Z,11.17
2022-10-02T14:27:06.564Z,2.83
2022-10-02T14:32:21.367Z,4.37
2022-10-02T14:37:37.078Z,1.53
2022-10-02T14:42:39.331Z,5.13
2022-10-02T14:47:57.607Z,4.87
2022-10-02T14:53:12.482Z,5.53
2022-10-02T14:59:09.905Z,2.77
2022-10-02T15:04:19.182Z,5.13
2022-10-02T15:09:46.374Z,3.87
2022-10-02T15:15:14.277Z,5.60
2022-10-02T15:20:22.633Z,3.67
2022-10-02T15:25:45.136Z,5.17
2022-10-02T15:30:57.217Z,4.20
2022-10-02T15:36:12.267Z,2.67
2022-10-02T15:41:40.646Z,4.70
2022-10-02T15:47:06.355Z,4.40
2022-10-02T15:52:27.312Z,2.63
2022-10-02T15:57:35.182Z,13.57
2022-10-02T16:02:59.991Z,5.87
2022-10-02T16:08:24.173Z,10.00
2022-10-02T16:13:53.192Z,3.50
2022-10-02T16:19:25.204Z,6.80
2022-10-02T16:25:03.904Z,8.80
2022-10-02T16:30:13.761Z,13.27
2022-10-02T16:35:43.530Z,26.10
2022-10-02T16:40:59.500Z,22.27
2022-10-02T16:47:00.653Z,21.60
2022-10-02T16:52:31.402Z,14.10
2022-10-02T16:57:39.583Z,3.40
2022-10-02T17:02:53.015Z,4.90
2022-10-02T17:08:13.943Z,7.00
2022-10-02T17:13:51.854Z,6.40
2022-10-02T17:18:58.533Z,20.00
2022-10-02T17:24:25.640Z,14.17
2022-10-02T17:29:37.434Z,19.73
2022-10-02T17:34:49.610Z,23.60
2022-10-02T17:40:16.731Z,93.13
2022-10-02T17:45:31.282Z,53.20
2022-10-02T17:50:57.623Z,46.33
2022-10-02T17:56:33.424Z,31.00
2022-10-02T18:01:57.277Z,70.57
2022-10-02T18:07:11.459Z,56.40
2022-10-02T18:12:56.110Z,15.23
2022-10-02T18:18:17.391Z,50.13
2022-10-02T18:23:38.512Z,192.37
2022-10-02T18:28:57.923Z,146.93
2022-10-02T18:34:06.931Z,66.77
2022-10-02T18:39:26.221Z,70.50
2022-10-02T18:44:48.453Z,92.83
2022-10-02T18:50:00.531Z,50.20
2022-10-02T18:55:05.840Z,113.77
2022-10-02T19:00:15.520Z,54.47
2022-10-02T19:05:29.816Z,15.80
2022-10-02T19:10:33.183Z,42.77
2022-10-02T19:15:36.681Z,36.00
2022-10-02T19:20:53.173Z,18.77
2022-10-02T19:25:58.604Z,17.60
2022-10-02T19:31:07.345Z,14.47
2022-10-02T19:36:17.036Z,49.27
2022-10-02T19:41:20.772Z,11.23
2022-10-02T19:46:41.120Z,19.70
2022-10-02T19:51:45.476Z,7.07
2022-10-02T19:56:49.356Z,41.77
2022-10-02T20:01:53.917Z,72.00
2022-10-02T20:06:59.124Z,22.43
2022-10-02T20:12:11.788Z,45.83
2022-10-02T20:17:17.742Z,9.83
2022-10-02T20:22:37.663Z,11.43
2022-10-02T20:27:43.086Z,8.17
2022-10-02T20:33:15.477Z,5.10
2022-10-02T20:38:49.624Z,5.77
2022-10-02T20:43:56.532Z,7.77
2022-10-02T20:49:37.480Z,5.57
2022-10-02T20:54:47.355Z,6.13
2022-10-02T21:00:08.793Z,4.30
2022-10-02T21:05:45.174Z,4.77
2022-10-02T21:11:06.242Z,4.77
2022-10-02T21:16:27.646Z,4.90
2022-10-02T21:21:39.072Z,5.43
2022-10-02T21:27:27.724Z,5.63
2022-10-02T21:32:41.865Z,6.63
2022-10-02T21:38:27.854Z,4.63
2022-10-02T21:43:44.322Z,3.17
2022-10-02T21:49:07.219Z,3.70
2022-10-02T21:54:30.301Z,5.10
2022-10-02T21:59:37.860Z,4.67
2022-10-02T22:05:13.894Z,4.67
2022-10-02T22:10:36.935Z,4.37
2022-10-02T22:15:48.486Z,4.23
2022-10-02T22:21:21.204Z,4.90
2022-10-02T22:26:55.253Z,2.93
2022-10-02T22:32:22.570Z,3.90
2022-10-02T22:37:50.115Z,4.53
2022-10-02T22:43:01.466Z,5.67
2022-10-02T22:48:12.308Z,3.90
2022-10-02T22:53:30.517Z,4.87
2022-10-02T22:58:44.435Z,6.63
2022-10-02T23:04:05.549Z,4.73
2022-10-02T23:09:26.883Z,4.27
2022-10-02T23:14:34.888Z,5.70
2022-10-02T23:19:43.948Z,4.27
2022-10-02T23:24:59.034Z,6.10
2022-10-02T23:30:21.861Z,5.20
2022-10-02T23:35:44.295Z,9.83
2022-10-02T23:41:26.708Z,10.77
2022-10-02T23:46:36.335Z,8.67
2022-10-02T23:52:14.530Z,6.80
2022-10-02T23:57:36.666Z,11.63
